Time;durP1;ratioP1;P1;durP2;ratioP2;P2;SDS_P1;SDS_P2;PMS_P1;PMS_P2;Temp;Humidity;BMP_temperature;BMP_pressure;BME280_temperature;BME280_humidity;BME280_pressure;Samples;Min_cycle;Max_cycle;Signal;HPM_P1;HPM_P2
2023/09/06 00:01:57;;;;;;;6.80;6.07;;;;;;;18.96;78.66;99879.13;4975088;29;20061;-96
2023/09/06 00:08:37;;;;;;;9.32;6.75;;;;;;;18.96;78.78;99875.59;4957755;29;20042;-96
2023/09/06 00:11:20;;;;;;;8.75;5.43;;;;;;;18.93;79.04;99870.78;4904425;29;20036;-96
2023/09/06 00:17:10;;;;;;;8.80;6.10;;;;;;;18.82;79.25;99877.59;4899967;29;20033;-96
2023/09/06 00:19:57;;;;;;;11.00;6.50;;;;;;;18.73;80.00;99878.31;4924458;29;20040;-96
2023/09/06 00:22:30;;;;;;;8.20;6.13;;;;;;;18.78;79.78;99878.25;4867143;29;20040;-96
2023/09/06 00:25:21;;;;;;;9.05;6.88;;;;;;;18.94;79.52;99902.41;4904980;29;20036;-96
2023/09/06 00:28:07;;;;;;;11.27;6.68;;;;;;;18.88;79.02;99890.00;4920858;29;20036;-96
2023/09/06 00:34:07;;;;;;;11.18;7.00;;;;;;;18.82;79.91;99902.97;4898521;29;20051;-96
2023/09/06 00:36:39;;;;;;;9.88;6.15;;;;;;;18.81;80.08;99892.38;4952837;28;20102;-96
2023/09/06 00:39:28;;;;;;;12.27;6.47;;;;;;;18.92;79.68;99910.91;4958485;29;20592;-96
2023/09/06 00:42:34;;;;;;;7.80;6.18;;;;;;;18.87;78.84;99881.03;4952461;28;20047;-96
2023/09/06 00:45:26;;;;;;;;;;;;;;;;;;;;;
2023/09/06 00:48:05;;;;;;;;;;;;;;;;;;;;;
2023/09/06 00:50:35;;;;;;;9.43;6.18;;;;;;;18.86;79.27;99886.78;4973410;28;20086;-96
2023/09/06 00:53:08;;;;;;;12.98;6.80;;;;;;;18.96;78.85;99895.50;4969918;28;20390;-96
2023/09/06 00:56:08;;;;;;;;;;;;;;;;;;;;;
2023/09/06 00:59:04;;;;;;;9.40;6.28;;;;;;;18.87;78.70;99880.22;4963130;28;20055;-96
2023/09/06 01:01:46;;;;;;;6.53;5.50;;;;;;;18.89;78.60;99870.59;4995246;28;20433;-96
2023/09/06 01:05:11;;;;;;;9.02;5.68;;;;;;;19.01;78.75;99880.13;4964923;28;20023;-96
2023/09/06 01:07:51;;;;;;;8.20;5.70;;;;;;;18.88;78.68;99865.44;4959045;28;20027;-96
2023/09/06 01:11:11;;;;;;;14.07;6.90;;;;;;;18.76;79.10;99871.47;4993813;28;20039;-96
2023/09/06 01:13:51;;;;;;;;;;;;;;;;;;;;;
2023/09/06 01:16:40;;;;;;;8.00;6.60;;;;;;;18.66;79.88;99872.50;4955210;29;20042;-96
2023/09/06 01:22:39;;;;;;;11.77;6.32;;;;;;;18.74;79.68;99877.22;4961796;29;20042;-96
2023/09/06 01:25:41;;;;;;;10.15;5.78;;;;;;;18.79;79.29;99879.03;4974243;28;20050;-96
2023/09/06 01:28:25;;;;;;;9.13;6.22;;;;;;;18.89;78.77;99895.16;4939608;29;20108;-96
2023/09/06 01:34:18;;;;;;;7.88;6.13;;;;;;;18.86;78.14;99878.59;4923015;29;20055;-96
2023/09/06 01:37:22;;;;;;;;;;;;;;;;;;;;;
2023/09/06 01:43:32;;;;;;;;;;;;;;;;;;;;;
2023/09/06 01:46:12;;;;;;;7.40;6.50;;;;;;;18.97;79.08;99897.13;4897698;29;20051;-96
2023/09/06 01:52:16;;;;;;;12.15;6.00;;;;;;;19.05;79.05;99903.78;4907116;29;20051;-96
2023/09/06 01:55:05;;;;;;;9.82;6.20;;;;;;;18.83;79.32;99877.31;4936003;29;20055;-96
2023/09/06 01:57:53;;;;;;;12.65;6.65;;;;;;;19.04;79.27;99904.88;4926033;29;20044;-96
2023/09/06 02:00:47;;;;;;;9.05;5.30;;;;;;;18.97;78.83;99894.41;4977988;28;20039;-96
2023/09/06 02:03:21;;;;;;;6.78;5.55;;;;;;;18.92;79.27;99882.81;4994577;28;20058;-96
2023/09/06 02:06:18;;;;;;;9.05;5.68;;;;;;;18.94;78.86;99892.28;4978881;28;20049;-96
2023/09/06 02:09:37;;;;;;;;;;;;;;;;;;;;;
2023/09/06 02:12:13;;;;;;;7.85;5.93;;;;;;;18.82;79.16;99886.59;4960111;29;20074;-96
2023/09/06 02:14:44;;;;;;;10.95;6.53;;;;;;;18.77;79.22;99882.03;4973643;29;20043;-96
2023/09/06 02:17:20;;;;;;;10.70;6.18;;;;;;;18.97;79.72;99913.50;4941824;29;20039;-96
2023/09/06 02:23:25;;;;;;;;;;;;;;;;;;;;;
2023/09/06 02:26:19;;;;;;;8.30;6.43;;;;;;;18.88;79.55;99890.00;4959573;29;20066;-96
2023/09/06 02:29:05;;;;;;;;;;;;;;;;;;;;;
2023/09/06 02:31:50;;;;;;;7.40;5.93;;;;;;;18.82;78.62;99888.50;4958286;29;20059;-96
2023/09/06 02:34:26;;;;;;;12.10;6.28;;;;;;;18.78;79.72;99885.59;4942680;29;20043;-96
2023/09/06 02:37:04;;;;;;;9.30;6.50;;;;;;;19.06;78.78;99910.03;4942513;29;20039;-96
2023/09/06 02:39:48;;;;;;;11.63;5.80;;;;;;;18.94;78.57;99892.28;4957427;29;20078;-96
2023/09/06 02:42:28;;;;;;;9.45;6.30;;;;;;;18.80;78.67;99885.28;4956142;29;20050;-96
2023/09/06 02:45:16;;;;;;;9.35;6.00;;;;;;;18.80;79.38;99885.28;4968635;29;20031;-96
2023/09/06 02:47:55;;;;;;;9.73;5.78;;;;;;;18.83;78.62;99888.22;4931036;29;20111;-96
2023/09/06 02:51:18;;;;;;;7.90;5.78;;;;;;;18.80;78.56;99894.31;4949527;28;20042;-96
2023/09/06 02:53:56;;;;;;;9.57;5.15;;;;;;;18.99;76.40;99918.66;4936988;29;20040;-96
2023/09/06 02:56:31;;;;;;;7.05;4.50;;;;;;;18.85;74.81;99887.91;4923537;29;20035;-96
2023/09/06 02:59:14;;;;;;;8.43;3.55;;;;;;;18.88;73.10;99893.53;4936577;29;20039;-96
2023/09/06 03:02:05;;;;;;;12.60;3.88;;;;;;;18.83;71.84;99890.94;4936646;29;20036;-96
2023/09/06 03:04:37;;;;;;;8.73;5.20;;;;;;;18.96;75.17;99919.28;4921057;29;20058;-96
2023/09/06 03:07:21;;;;;;;11.80;5.90;;;;;;;18.85;76.53;99904.28;4921688;29;20036;-96
2023/09/06 03:10:00;;;;;;;8.90;5.70;;;;;;;18.89;76.73;99913.47;4922098;29;20032;-96
2023/09/06 03:12:52;;;;;;;6.55;4.72;;;;;;;19.05;74.85;99928.34;4923244;29;20115;-96
2023/09/06 03:15:20;;;;;;;;;;;;;;;19.00;76.60;99930.38;4936515;29;20054;-96
2023/09/06 03:17:54;;;;;;;9.10;5.22;;;;;;;18.77;76.57;99911.25;4920046;29;19914;-96
2023/09/06 03:26:14;;;;;;;7.28;4.68;;;;;;;19.01;72.49;99912.88;4966561;28;20041;-96
2023/09/06 03:28:46;;;;;;;6.00;3.80;;;;;;;19.11;70.81;99923.53;4990599;28;20035;-96
2023/09/06 03:31:13;;;;;;;5.63;3.22;;;;;;;19.27;68.07;99943.88;4977171;28;20038;-96
2023/09/06 03:34:01;;;;;;;;;;;;;;;;;;;;;
2023/09/06 03:36:35;;;;;;;8.85;3.90;;;;;;;18.97;72.45;99915.44;4976947;28;20057;-96
2023/09/06 03:39:06;;;;;;;7.93;4.15;;;;;;;19.02;72.49;99922.69;4959654;28;20043;-96
2023/09/06 03:41:39;;;;;;;8.10;5.10;;;;;;;19.04;74.59;99934.91;4958248;28;20067;-96
2023/09/06 03:44:27;;;;;;;7.90;4.90;;;;;;;18.94;74.20;99916.03;4960077;28;20301;-96
2023/09/06 03:47:07;;;;;;;11.90;4.88;;;;;;;19.00;74.29;99922.19;4960448;28;20030;-93
2023/09/06 03:49:53;;;;;;;;;;;;;;;;;;;;;
2023/09/06 03:52:26;;;;;;;9.20;4.80;;;;;;;18.87;73.81;99913.75;4977176;28;20050;-96
2023/09/06 03:54:59;;;;;;;14.93;5.38;;;;;;;18.91;73.07;99928.41;4977289;28;20061;-96
2023/09/06 03:57:34;;;;;;;8.90;4.50;;;;;;;19.06;71.29;99935.41;4977336;28;20042;-96
2023/09/06 04:00:31;;;;;;;7.45;4.38;;;;;;;19.08;69.59;99918.72;4991948;28;20058;-96
2023/09/06 04:03:03;;;;;;;11.77;4.97;;;;;;;18.97;72.66;99915.44;4991418;28;20074;-96
2023/09/06 04:05:35;;;;;;;8.63;4.88;;;;;;;19.18;73.06;99946.56;4960673;28;20107;-96
2023/09/06 04:10:52;;;;;;;7.93;4.07;;;;;;;18.95;71.71;99926.66;4979105;28;20047;-96
2023/09/06 04:13:39;;;;;;;11.73;5.57;;;;;;;18.84;71.25;99925.28;4978227;28;20030;-96
2023/09/06 04:16:28;;;;;;;8.88;4.13;;;;;;;19.07;71.66;99958.03;4967958;28;20210;-96
2023/09/06 04:19:31;;;;;;;7.93;4.25;;;;;;;18.86;69.64;99938.63;4984131;28;20031;-96
2023/09/06 04:22:17;;;;;;;10.73;4.35;;;;;;;18.88;69.08;99939.13;4987155;28;20023;-95
2023/09/06 04:24:45;;;;;;;10.13;4.88;;;;;;;18.91;71.55;99957.63;4928934;29;20027;-96
2023/09/06 04:27:20;;;;;;;8.23;4.32;;;;;;;18.78;73.33;99943.72;4927956;29;20044;-96
2023/09/06 04:30:17;;;;;;;;;;;;;;;;;;;;;
2023/09/06 04:36:48;;;;;;;11.32;4.82;;;;;;;18.91;71.51;99942.03;4961486;29;20052;-95
2023/09/06 04:39:20;;;;;;;10.80;6.20;;;;;;;18.86;68.71;99936.69;4960361;29;20051;-96
2023/09/06 04:42:00;;;;;;;7.63;3.60;;;;;;;18.97;67.22;99940.00;4960461;29;20027;-96
2023/09/06 04:44:56;;;;;;;;;;;;;;;;;;;;;
2023/09/06 04:48:05;;;;;;;6.28;3.47;;;;;;;19.14;62.57;99945.56;4929851;29;20059;-96
2023/09/06 04:50:59;;;;;;;10.35;3.50;;;;;;;19.30;63.49;99954.19;4952850;28;20039;-96
2023/09/06 04:53:24;;;;;;;5.50;3.45;;;;;;;19.35;64.09;99955.97;4960651;29;20035;-96
2023/09/06 04:55:57;;;;;;;8.05;3.78;;;;;;;19.38;63.21;99944.41;4959185;28;20050;-94
2023/09/06 04:58:33;;;;;;;8.30;4.32;;;;;;;19.51;62.20;99954.44;4949588;28;20070;-95
2023/09/06 05:01:26;;;;;;;4.40;2.95;;;;;;;19.46;55.77;99949.09;4950991;28;20119;-96
2023/09/06 05:04:05;;;;;;;3.55;2.33;;;;;;;19.55;55.23;99947.25;4950378;28;20052;-95
2023/09/06 05:06:43;;;;;;;5.97;2.67;;;;;;;19.68;55.35;99945.53;4965505;28;20035;-96
2023/09/06 05:09:38;;;;;;;;;;;;;;;;;;;;;
2023/09/06 05:12:11;;;;;;;6.10;2.58;;;;;;;19.84;52.63;99953.31;4986973;28;20047;-96
2023/09/06 05:15:17;;;;;;;9.15;2.75;;;;;;;19.92;53.91;99950.63;4968860;28;20026;-96
2023/09/06 05:17:53;;;;;;;4.60;3.25;;;;;;;20.00;59.47;99968.16;4982607;28;20035;-96
2023/09/06 05:23:43;;;;;;;4.93;3.10;;;;;;;19.94;61.67;99970.25;4922531;29;20035;-96
2023/09/06 05:26:31;;;;;;;12.95;4.20;;;;;;;20.09;60.06;99982.69;4873768;29;20124;-96
2023/09/06 05:29:01;;;;;;;6.72;2.97;;;;;;;20.15;59.57;99973.22;4875205;29;20047;-96
2023/09/06 05:31:29;;;;;;;5.80;2.78;;;;;;;20.32;52.60;99990.78;4898833;28;20055;-96
2023/09/06 05:34:37;;;;;;;3.83;2.40;;;;;;;20.40;51.98;99968.13;4982301;28;20022;-96
2023/09/06 05:37:45;;;;;;;5.10;2.42;;;;;;;20.37;53.19;99971.47;4996929;28;20030;-96
2023/09/06 05:40:36;;;;;;;;;;;;;;;;;;;;;
2023/09/06 05:43:50;;;;;;;;;;;;;;;;;;;;;
2023/09/06 05:46:47;;;;;;;3.50;2.28;;;;;;;20.45;48.34;99978.91;4945302;29;20070;-96
2023/09/06 05:49:48;;;;;;;3.63;1.98;;;;;;;20.46;47.62;99977.78;4955268;29;20103;-96
2023/09/06 05:52:59;;;;;;;3.25;2.13;;;;;;;20.52;47.96;99981.97;4887371;29;20037;-96
2023/09/06 05:55:38;;;;;;;4.57;2.38;;;;;;;20.51;47.82;99987.75;4878188;29;20086;-96
2023/09/06 05:58:22;;;;;;;5.03;2.20;;;;;;;20.71;48.29;99986.34;4849891;29;20054;-96
2023/09/06 06:01:02;;;;;;;9.43;2.60;;;;;;;20.91;48.38;100006.81;4839725;29;20045;-96
2023/09/06 06:03:37;;;;;;;8.90;3.97;;;;;;;20.82;48.56;99981.38;4846484;29;20049;-96
2023/09/06 06:06:06;;;;;;;5.40;2.20;;;;;;;20.88;48.66;100011.00;4857622;29;20045;-96
2023/09/06 06:08:38;;;;;;;8.63;2.47;;;;;;;20.77;48.23;99993.28;4873953;29;20051;-96
2023/09/06 06:13:57;;;;;;;4.28;2.28;;;;;;;21.09;47.54;100000.19;5001082;23;20055;-96
2023/09/06 06:16:35;;;;;;;4.55;2.55;;;;;;;21.27;47.45;100008.38;4969713;28;20043;-96
2023/09/06 06:19:00;;;;;;;5.57;2.13;;;;;;;21.35;46.57;100016.63;4970137;28;20041;-96
2023/09/06 06:21:35;;;;;;;6.70;2.13;;;;;;;21.21;46.37;99991.34;4967582;28;20035;-96
2023/09/06 06:24:14;;;;;;;5.55;2.25;;;;;;;21.25;48.75;100014.22;4969616;28;20041;-96
2023/09/06 06:26:51;;;;;;;;;;;;;;;;;;;;;
2023/09/06 06:29:19;;;;;;;5.95;1.90;;;;;;;21.18;47.08;100000.97;4969523;28;20153;-96
2023/09/06 06:32:07;;;;;;;10.05;2.47;;;;;;;21.20;46.98;99998.72;4965485;28;20485;-96
2023/09/06 06:35:29;;;;;;;4.47;2.00;;;;;;;21.27;46.59;100020.16;4950926;28;20097;-96
2023/09/06 06:38:11;;;;;;;3.67;2.17;;;;;;;21.14;47.03;100007.44;4992132;28;20031;-96
2023/09/06 06:40:49;;;;;;;10.05;4.50;;;;;;;21.32;46.98;100006.28;4954084;28;20073;-96
2023/09/06 06:43:16;;;;;;;5.45;2.20;;;;;;;21.31;47.83;100012.91;4955197;28;20412;-96
2023/09/06 06:46:09;;;;;;;5.57;2.63;;;;;;;21.17;47.79;100023.25;4954714;28;20037;-96
2023/09/06 06:48:35;;;;;;;3.97;2.05;;;;;;;21.23;47.52;100018.38;4962646;28;20089;-96
2023/09/06 07:14:36;;;;;;;3.20;2.05;;;;;;;21.74;46.93;100038.63;5591942;23;20051;-93
2023/09/06 07:35:50;;;;;;;5.25;2.70;;;;;;;22.65;45.86;100036.44;4979876;28;20090;-96
2023/09/06 07:38:39;;;;;;;5.55;2.70;;;;;;;22.46;46.35;100022.38;4939550;29;20047;-96
2023/09/06 07:41:25;;;;;;;5.55;3.67;;;;;;;22.61;46.47;100024.53;4946245;28;20119;-96
2023/09/06 08:29:46;;;;;;;6.20;4.28;;;;;;;23.66;48.09;100029.09;3903595;23;20299;-94
2023/09/06 08:32:17;;;;;;;8.48;5.30;;;;;;;23.53;49.90;100020.88;4986923;28;20522;-96
2023/09/06 08:35:09;;;;;;;10.48;4.47;;;;;;;23.69;48.62;100015.50;4955281;29;20047;-96
2023/09/06 08:38:29;;;;;;;8.65;4.63;;;;;;;23.55;48.42;99999.34;5584844;23;20109;-96
2023/09/06 10:17:42;;;;;;;9.23;5.10;;;;;;;25.25;43.29;99970.34;1942206;23;20308;-94
2023/09/06 10:20:14;;;;;;;7.75;4.90;;;;;;;25.35;43.51;99967.06;4943312;29;20055;-96
2023/09/06 10:22:46;;;;;;;7.60;4.40;;;;;;;25.38;43.84;99957.28;4925943;29;20450;-95
2023/09/06 10:25:12;;;;;;;;;;;;;;;25.52;43.99;99982.47;4941138;29;20406;-96
2023/09/06 10:28:04;;;;;;;10.30;5.20;;;;;;;25.24;42.70;99952.22;4924172;29;19911;-96
2023/09/06 10:30:43;;;;;;;7.72;4.50;;;;;;;25.57;43.34;99975.91;4941224;29;20446;-95
2023/09/06 10:33:21;;;;;;;;;;;;;;;;;;;;;
2023/09/06 11:45:46;;;;;;;12.43;4.97;;;;;;;27.07;38.35;99884.56;4931225;29;20117;-96
2023/09/06 12:49:11;;;;;;;8.23;4.93;;;;;;;28.33;34.46;99798.72;4959964;29;20047;-96
2023/09/06 12:57:08;;;;;;;8.70;5.10;;;;;;;28.69;35.65;99814.94;5024216;23;20059;-96
2023/09/06 12:59:42;;;;;;;8.65;4.43;;;;;;;28.84;35.27;99793.69;4958841;28;20035;-96
2023/09/06 13:02:08;;;;;;;6.88;4.50;;;;;;;28.63;34.93;99789.53;4957676;28;20035;-96
2023/09/06 13:08:10;;;;;;;8.55;5.18;;;;;;;28.54;34.88;99775.22;4853134;29;20191;-96
2023/09/06 13:14:15;;;;;;;;;;;;;;;28.61;34.50;99783.59;4883067;29;20052;-96
2023/09/06 13:53:52;;;;;;;8.60;5.40;;;;;;;28.35;33.53;99746.50;6068919;23;20259;31
2023/09/06 14:06:38;;;;;;;6.30;4.07;;;;;;;27.98;32.68;99729.88;5490751;23;20051;-96
2023/09/06 15:57:13;;;;;;;4.65;3.25;;;;;;;26.50;35.45;99739.81;5916560;23;20340;-96
2023/09/06 17:58:12;;;;;;;6.07;3.30;;;;;;;24.57;37.53;99841.75;5104134;23;20050;-96
2023/09/06 18:01:15;;;;;;;9.05;3.50;;;;;;;24.54;37.70;99850.72;4997169;28;20043;-96
2023/09/06 18:03:50;;;;;;;5.28;3.55;;;;;;;24.52;37.82;99844.75;4996367;28;20107;-95
2023/09/06 18:06:25;;;;;;;5.63;3.10;;;;;;;24.60;37.72;99863.06;4980201;28;20014;-96
2023/09/06 18:19:11;;;;;;;6.53;2.95;;;;;;;24.39;37.77;99861.28;4956925;28;20150;-95
2023/09/06 18:21:38;;;;;;;6.95;2.80;;;;;;;24.32;37.55;99857.53;4927354;29;20517;-96
2023/09/06 18:24:14;;;;;;;5.65;2.78;;;;;;;24.30;37.74;99851.56;4928901;29;20050;-96
2023/09/06 18:26:43;;;;;;;4.50;3.30;;;;;;;24.29;37.93;99852.72;4926909;29;20426;-96
2023/09/06 18:32:42;;;;;;;4.30;2.60;;;;;;;24.23;37.75;99849.41;4953188;28;20039;-95
2023/09/06 18:35:08;;;;;;;4.70;2.50;;;;;;;24.25;37.62;99855.38;4931276;29;20039;-95
2023/09/06 18:37:37;;;;;;;4.43;2.70;;;;;;;24.30;37.50;99862.56;4927120;29;20070;-94
2023/09/06 18:40:13;;;;;;;5.68;3.35;;;;;;;24.30;37.86;99860.66;4926004;29;20035;-96
2023/09/06 18:42:52;;;;;;;4.13;2.38;;;;;;;24.15;37.91;99850.34;4943591;29;20051;-96
2023/09/06 18:45:19;;;;;;;5.22;2.75;;;;;;;24.04;37.67;99839.03;4930760;29;20042;-96
2023/09/06 18:47:51;;;;;;;9.13;2.97;;;;;;;24.13;37.82;99861.69;4926733;29;20039;-96
2023/09/06 18:50:17;;;;;;;4.03;2.65;;;;;;;24.03;37.74;99845.69;4927195;29;20039;-96
2023/09/06 18:52:49;;;;;;;4.18;2.90;;;;;;;23.98;37.96;99837.66;4926801;29;20043;-96
2023/09/06 18:55:15;;;;;;;4.32;2.80;;;;;;;24.01;37.86;99839.75;4925968;29;20035;-96
2023/09/06 18:57:41;;;;;;;6.18;3.00;;;;;;;24.02;37.78;99846.03;4942978;29;20040;-96
2023/09/06 19:00:10;;;;;;;7.18;3.10;;;;;;;24.06;37.99;99846.94;4927229;29;20063;-96
2023/09/06 19:02:36;;;;;;;4.80;2.85;;;;;;;24.11;38.28;99860.44;4925537;29;20114;-95
2023/09/06 19:05:02;;;;;;;7.38;3.25;;;;;;;24.05;38.36;99848.09;4958448;29;20498;-96
2023/09/06 19:07:28;;;;;;;6.88;3.00;;;;;;;24.13;38.54;99863.66;4926000;29;20501;-96
2023/09/06 19:09:53;;;;;;;6.38;3.25;;;;;;;24.06;39.68;99855.19;4926769;29;20039;-96
2023/09/06 19:12:19;;;;;;;7.35;3.10;;;;;;;23.96;40.22;99846.25;4941970;29;20031;-96
2023/09/06 19:14:44;;;;;;;4.03;2.83;;;;;;;23.97;40.54;99855.34;4926034;29;20139;-96
2023/09/06 19:17:10;;;;;;;5.45;3.13;;;;;;;24.12;41.54;99878.56;4927875;29;20051;-96
2023/09/06 19:19:38;;;;;;;5.85;2.92;;;;;;;23.89;41.86;99862.56;4930131;29;20035;-96
2023/09/06 19:22:07;;;;;;;13.63;3.45;;;;;;;23.98;42.10;99868.72;4926531;29;20027;-96
2023/09/06 19:24:33;;;;;;;10.55;3.28;;;;;;;23.87;42.77;99867.59;4926921;29;20462;-95
2023/09/06 19:27:01;;;;;;;3.97;2.92;;;;;;;23.89;42.89;99873.56;4926492;29;20102;-96
2023/09/06 19:29:27;;;;;;;5.55;3.40;;;;;;;23.77;43.18;99870.81;4926433;29;20031;-96
2023/09/06 19:31:52;;;;;;;5.70;3.65;;;;;;;23.76;43.19;99877.44;4926528;29;20038;-96
2023/09/06 19:34:18;;;;;;;10.75;3.30;;;;;;;23.66;43.40;99873.22;4925689;29;20409;-96
2023/09/06 19:36:44;;;;;;;4.65;2.90;;;;;;;23.60;43.92;99875.38;4926909;29;20095;-96
2023/09/06 19:39:11;;;;;;;12.32;4.57;;;;;;;23.57;44.68;99884.34;4927928;29;20039;-96
2023/09/06 19:41:39;;;;;;;7.55;3.15;;;;;;;23.49;44.28;99882.50;4925869;29;20516;-96
2023/09/06 19:44:05;;;;;;;8.63;3.22;;;;;;;23.52;44.85;99892.78;4930019;29;20046;-96
2023/09/06 19:46:31;;;;;;;7.22;3.42;;;;;;;23.44;44.44;99876.41;4945444;29;20063;-96
2023/09/06 19:48:56;;;;;;;7.47;4.18;;;;;;;23.51;44.79;99902.19;4931440;29;20027;-96
2023/09/06 19:51:22;;;;;;;7.60;3.78;;;;;;;23.41;45.33;99899.91;4946466;29;20027;-96
2023/09/06 19:53:48;;;;;;;5.80;3.35;;;;;;;23.36;45.68;99900.09;4929293;29;20035;-96
2023/09/06 19:56:14;;;;;;;8.70;3.50;;;;;;;23.27;45.67;99880.97;4930388;29;20094;-96
2023/09/06 19:58:41;;;;;;;6.00;3.92;;;;;;;23.29;45.76;99897.91;4930775;29;20046;-96
2023/09/06 20:01:09;;;;;;;8.93;3.50;;;;;;;23.27;46.16;99891.16;4929318;29;20043;-96
2023/09/06 20:03:34;;;;;;;5.68;3.50;;;;;;;23.22;46.13;99903.16;4931080;29;20084;-96
2023/09/06 20:06:03;;;;;;;7.07;3.60;;;;;;;;;;4932516;29;20095;-96
2023/09/06 20:08:29;;;;;;;5.68;3.60;;;;;;;23.06;46.56;99881.06;4948196;29;20094;-95
2023/09/06 20:10:54;;;;;;;7.18;4.00;;;;;;;;;;4930456;29;20035;-95
2023/09/06 20:16:42;;;;;;;9.80;4.00;;;;;;;22.87;47.61;99876.06;4963314;28;20164;-96
2023/09/06 20:19:08;;;;;;;7.88;3.85;;;;;;;22.89;46.84;99887.50;4944685;29;20133;-95
2023/09/06 20:21:33;;;;;;;11.60;4.15;;;;;;;22.93;46.58;99890.34;4930062;29;20043;-96
2023/09/06 20:23:59;;;;;;;8.18;4.07;;;;;;;22.86;46.45;99885.41;4929008;29;20038;-96
2023/09/06 20:26:29;;;;;;;8.70;3.50;;;;;;;22.86;46.71;99895.59;4931010;29;20363;-96
2023/09/06 20:28:58;;;;;;;9.33;3.73;;;;;;;22.73;48.55;99890.06;4930247;29;20600;-96
2023/09/06 20:31:24;;;;;;;9.27;3.90;;;;;;;22.69;50.36;99902.88;4929617;29;20485;-96
2023/09/06 20:33:50;;;;;;;7.50;3.55;;;;;;;22.64;51.35;99905.00;4930287;29;20023;-96
2023/09/06 20:36:15;;;;;;;7.15;4.25;;;;;;;22.48;51.58;99899.34;4929719;29;20043;-95
2023/09/06 21:28:55;;;;;;;7.15;3.63;;;;;;;21.54;52.94;99884.75;5264464;23;20058;-96
2023/09/06 21:31:31;;;;;;;6.63;3.30;;;;;;;21.54;53.08;99883.91;4945968;28;20114;-96
2023/09/06 21:34:12;;;;;;;9.13;3.78;;;;;;;21.57;52.97;99884.06;4978667;28;20034;-96
2023/09/06 21:36:58;;;;;;;8.82;3.50;;;;;;;21.76;52.77;99905.56;4977979;28;20038;-95
2023/09/06 21:39:36;;;;;;;9.27;3.55;;;;;;;21.64;53.85;99893.72;4978564;28;20109;-96
2023/09/06 21:42:04;;;;;;;6.82;3.58;;;;;;;21.53;53.52;99887.81;4976859;28;20039;-95
2023/09/06 21:45:49;;;;;;;7.70;3.90;;;;;;;21.34;54.85;99877.22;4957988;28;20034;-96
2023/09/06 21:48:17;;;;;;;5.53;3.50;;;;;;;21.36;54.61;99891.41;4876127;29;20074;-96
2023/09/06 21:50:56;;;;;;;;;;;;;;;;;;;;;
2023/09/06 21:53:23;;;;;;;8.02;3.45;;;;;;;21.18;54.59;99880.47;4918003;29;20071;-96
2023/09/06 21:55:50;;;;;;;8.20;3.95;;;;;;;21.27;54.50;99874.16;4899220;29;20054;-96
2023/09/06 21:58:18;;;;;;;6.32;3.38;;;;;;;21.29;54.98;99885.59;4901536;29;20099;-96
2023/09/06 22:00:52;;;;;;;4.85;3.80;;;;;;;21.33;54.55;99892.03;4916737;29;20044;-96
2023/09/06 22:03:18;;;;;;;5.68;3.78;;;;;;;21.29;56.24;99913.00;4901907;29;20036;-96
2023/09/06 22:05:48;;;;;;;6.93;3.78;;;;;;;21.19;56.00;99900.47;4901966;29;20114;-96
2023/09/06 22:08:25;;;;;;;8.98;3.80;;;;;;;21.22;56.16;99904.50;4933367;29;20012;-96
2023/09/06 22:10:51;;;;;;;6.22;4.05;;;;;;;21.20;56.23;99913.81;4904095;29;20143;-96
2023/09/06 22:13:58;;;;;;;7.57;4.07;;;;;;;21.15;56.73;99910.47;4958046;28;20037;-96
2023/09/06 22:17:14;;;;;;;5.97;3.78;;;;;;;21.02;56.47;99889.56;4939395;28;20113;-96
2023/09/06 22:20:05;;;;;;;5.28;3.70;;;;;;;20.86;58.02;99898.28;4916518;29;20071;-96
2023/09/06 22:23:12;;;;;;;9.23;3.65;;;;;;;20.83;57.45;99895.38;4848479;29;20045;-96
2023/09/06 22:26:06;;;;;;;5.47;3.08;;;;;;;20.81;58.31;99901.19;4917753;29;20029;-96
2023/09/06 22:28:36;;;;;;;8.70;3.97;;;;;;;20.68;58.84;99889.28;4888181;29;20087;-96
2023/09/06 22:31:59;;;;;;;11.48;4.45;;;;;;;20.75;58.15;99902.47;4916420;29;20104;-96
2023/09/06 22:34:40;;;;;;;;;;;;;;;20.76;58.81;99917.78;4843703;29;20035;-96
2023/09/06 22:37:32;;;;;;;5.70;3.40;;;;;;;20.52;59.45;99888.97;4848506;29;19915;-96
2023/09/06 22:40:06;;;;;;;7.93;4.15;;;;;;;20.58;59.34;99914.22;4918809;29;20503;-96
2023/09/06 22:42:37;;;;;;;11.07;3.75;;;;;;;20.35;59.71;99892.47;4902066;29;20092;-96
2023/09/06 22:45:06;;;;;;;8.93;3.70;;;;;;;20.22;60.22;99898.09;4902749;29;20143;-96
2023/09/06 22:47:32;;;;;;;7.22;3.50;;;;;;;20.13;60.59;99890.69;4888236;29;20043;-96
2023/09/06 22:49:57;;;;;;;6.65;4.13;;;;;;;20.18;60.48;99897.94;4871376;29;20052;-96
2023/09/06 22:52:23;;;;;;;7.05;3.70;;;;;;;20.11;60.11;99892.16;4871639;29;20128;-96
2023/09/06 22:54:49;;;;;;;7.72;4.38;;;;;;;20.12;60.30;99901.94;4922497;29;20044;-95
2023/09/06 22:57:14;;;;;;;10.07;4.50;;;;;;;20.08;60.39;99896.31;4890574;29;20040;-96
2023/09/06 22:59:40;;;;;;;11.18;4.45;;;;;;;19.99;61.26;99888.09;4910781;29;20050;-96
2023/09/06 23:02:06;;;;;;;6.43;4.20;;;;;;;19.84;61.94;99885.81;4909591;29;20047;-96
2023/09/06 23:04:50;;;;;;;6.57;4.20;;;;;;;19.85;61.84;99890.16;4909931;29;20051;-96
2023/09/06 23:07:21;;;;;;;9.35;4.10;;;;;;;19.66;62.44;99879.47;4925824;29;20119;-96
2023/09/06 23:09:48;;;;;;;7.22;4.15;;;;;;;19.76;62.72;99906.53;4896187;29;20067;-96
2023/09/06 23:12:15;;;;;;;7.03;3.83;;;;;;;19.78;62.72;99909.75;4909677;29;20031;-96
2023/09/06 23:14:41;;;;;;;10.90;4.80;;;;;;;19.68;62.93;99893.63;4911723;29;20040;-96
2023/09/06 23:17:10;;;;;;;8.65;4.30;;;;;;;19.70;62.48;99894.13;4894714;29;20118;-96
2023/09/06 23:19:43;;;;;;;11.88;4.55;;;;;;;19.72;62.30;99888.34;4910199;29;20206;-96
2023/09/06 23:22:17;;;;;;;6.95;4.00;;;;;;;19.72;63.18;99902.03;4938123;28;20066;-96
2023/09/06 23:24:46;;;;;;;7.57;3.90;;;;;;;19.63;63.35;99896.50;4977273;28;20046;-96
2023/09/06 23:27:17;;;;;;;10.23;4.20;;;;;;;19.53;63.64;99888.59;4962449;29;20489;-96
2023/09/06 23:29:55;;;;;;;8.73;4.20;;;;;;;19.61;63.05;99887.00;4947192;29;20095;-96
2023/09/06 23:32:24;;;;;;;8.95;3.95;;;;;;;19.54;64.05;99893.72;4946372;29;20468;-96
2023/09/06 23:34:52;;;;;;;9.10;4.03;;;;;;;19.52;63.95;99893.22;4945369;29;20040;-96
2023/09/06 23:37:18;;;;;;;7.75;4.13;;;;;;;19.58;63.76;99902.09;4946321;29;20054;-96
2023/09/06 23:39:47;;;;;;;9.48;4.15;;;;;;;19.46;63.86;99883.56;4944937;29;20039;-96
2023/09/06 23:42:16;;;;;;;11.35;4.13;;;;;;;19.54;64.34;99901.91;4944973;29;20486;-96
2023/09/06 23:44:43;;;;;;;8.10;3.67;;;;;;;19.53;63.90;99880.41;4945968;29;20106;-96
2023/09/06 23:47:12;;;;;;;8.93;3.72;;;;;;;19.46;63.77;99880.81;4961107;29;20102;-96
2023/09/06 23:49:39;;;;;;;8.57;3.72;;;;;;;19.42;64.05;99879.03;4945816;29;20054;-96
2023/09/06 23:52:09;;;;;;;6.78;3.33;;;;;;;19.40;64.23;99879.34;4960768;29;20031;-96
2023/09/06 23:54:34;;;;;;;6.90;3.97;;;;;;;19.45;63.98;99878.44;4945526;29;20099;-96
2023/09/06 23:57:01;;;;;;;9.05;3.95;;;;;;;19.44;64.11;99874.88;4961451;29;20050;-96
2023/09/06 23:59:29;;;;;;;8.38;4.25;;;;;;;19.39;64.86;99867.63;4960729;29;20043;-96
